Time;durP1;ratioP1;P1;durP2;ratioP2;P2;SDS_P1;SDS_P2;PMS_P1;PMS_P2;Temp;Humidity;BMP_temperature;BMP_pressure;BME280_temperature;BME280_humidity;BME280_pressure;Samples;Min_cycle;Max_cycle;Signal;HPM_P1;HPM_P2
2023/07/21 00:01:44;;;;;;;5.20;3.50;;;;;;;23.11;63.30;94707.31;6127968;23;20171;-68
2023/07/21 00:04:10;;;;;;;4.95;4.18;;;;;;;23.11;63.70;94700.91;6127808;23;20168;-68
2023/07/21 00:06:39;;;;;;;4.90;4.40;;;;;;;23.12;64.02;94700.44;6127662;23;20178;-68
2023/07/21 00:09:06;;;;;;;5.93;4.32;;;;;;;23.11;63.63;94701.69;6127936;23;20238;-67
2023/07/21 00:11:33;;;;;;;5.22;4.43;;;;;;;23.11;63.73;94703.72;6127309;23;20544;-67
2023/07/21 00:14:00;;;;;;;4.75;4.20;;;;;;;23.11;63.64;94710.13;6128054;23;20199;-67
2023/07/21 00:16:29;;;;;;;6.20;5.70;;;;;;;23.10;64.04;94702.91;6128591;23;20573;-68
2023/07/21 00:18:56;;;;;;;6.70;4.82;;;;;;;23.05;64.11;94692.97;6128199;23;20167;-67
2023/07/21 00:21:24;;;;;;;4.68;4.38;;;;;;;23.02;63.73;94693.88;6128881;23;20164;-68
2023/07/21 00:23:53;;;;;;;4.90;4.43;;;;;;;23.04;63.97;94688.59;6128027;23;20168;-68
2023/07/21 00:26:20;;;;;;;4.45;3.95;;;;;;;23.00;64.49;94689.94;6127492;23;20171;-68
2023/07/21 00:28:47;;;;;;;4.50;4.10;;;;;;;22.92;64.58;94689.34;6128106;23;20168;-68
2023/07/21 00:31:14;;;;;;;4.57;4.18;;;;;;;22.93;64.49;94685.28;6127688;23;20184;-68
2023/07/21 00:33:41;;;;;;;5.03;4.10;;;;;;;22.94;64.40;94692.47;6138237;23;20187;-68
2023/07/21 00:36:08;;;;;;;6.65;4.85;;;;;;;22.92;64.74;94686.53;6128447;23;20204;-67
2023/07/21 00:38:35;;;;;;;5.82;4.43;;;;;;;22.94;64.86;94683.25;6127372;23;20569;-66
2023/07/21 00:41:04;;;;;;;5.43;4.70;;;;;;;22.92;64.37;94688.56;6127878;23;20168;-66
2023/07/21 00:43:31;;;;;;;4.90;4.25;;;;;;;22.95;64.70;94687.63;6138583;23;20199;-66
2023/07/21 00:45:57;;;;;;;4.75;4.25;;;;;;;22.97;64.68;94690.81;6129314;23;20156;-67
2023/07/21 00:48:24;;;;;;;5.00;4.55;;;;;;;22.99;64.26;94691.97;6128003;23;20183;-67
2023/07/21 00:50:52;;;;;;;6.30;4.25;;;;;;;23.00;64.73;94673.84;6127796;23;20186;-67
2023/07/21 00:53:20;;;;;;;4.88;4.30;;;;;;;22.94;64.66;94672.78;6128664;23;20191;-67
2023/07/21 00:55:47;;;;;;;4.75;4.25;;;;;;;22.89;65.03;94667.69;6127827;23;20176;-67
2023/07/21 00:58:16;;;;;;;4.85;4.10;;;;;;;22.78;65.08;94664.38;6138326;23;20167;-67
2023/07/21 01:00:42;;;;;;;4.40;4.00;;;;;;;22.77;65.43;94660.78;6127609;23;20230;-67
2023/07/21 01:03:10;;;;;;;5.47;4.35;;;;;;;22.74;65.28;94653.22;6128714;23;20561;-67
2023/07/21 01:05:41;;;;;;;5.50;4.45;;;;;;;22.74;65.41;94650.41;6138119;23;20168;-67
2023/07/21 01:08:08;;;;;;;5.20;4.43;;;;;;;22.69;65.26;94641.72;6127223;23;20164;-67
2023/07/21 01:10:35;;;;;;;5.32;4.25;;;;;;;22.61;66.06;94640.34;6127272;23;20242;-67
2023/07/21 01:13:02;;;;;;;4.82;4.32;;;;;;;22.51;66.16;94628.13;6128765;23;20164;-68
2023/07/21 01:15:31;;;;;;;5.20;4.47;;;;;;;22.51;66.17;94628.13;6138459;23;20167;-67
2023/07/21 01:17:59;;;;;;;5.55;4.43;;;;;;;22.52;65.89;94624.91;6128911;23;20176;-67
2023/07/21 01:20:27;;;;;;;5.30;3.97;;;;;;;22.53;65.80;94628.50;6127893;23;20230;-67
2023/07/21 01:22:57;;;;;;;5.50;4.05;;;;;;;22.47;65.92;94627.44;6127525;23;20230;-67
2023/07/21 01:25:27;;;;;;;6.72;3.90;;;;;;;22.46;66.21;94623.06;6130483;23;20159;-67
2023/07/21 01:27:55;;;;;;;4.28;3.97;;;;;;;22.47;65.90;94624.63;6130459;23;20203;-68
2023/07/21 01:30:22;;;;;;;4.57;4.18;;;;;;;22.48;65.73;94629.03;6129666;23;20172;-67
2023/07/21 01:32:51;;;;;;;6.50;4.70;;;;;;;22.51;66.09;94636.56;6129102;23;20180;-67
2023/07/21 01:35:18;;;;;;;4.97;4.13;;;;;;;22.48;66.13;94643.09;6130009;23;20490;-67
2023/07/21 01:38:23;;;;;;;4.40;4.00;;;;;;;22.44;66.04;94636.75;6130496;23;20164;-67
2023/07/21 01:41:27;;;;;;;5.00;4.57;;;;;;;22.42;65.79;94645.63;6129059;23;20183;-67
2023/07/21 01:44:31;;;;;;;6.28;4.15;;;;;;;22.43;66.24;94649.22;6130374;23;20160;-68
2023/07/21 01:47:35;;;;;;;6.57;4.32;;;;;;;22.36;66.23;94667.03;6130323;23;20175;-68
2023/07/21 01:50:41;;;;;;;4.80;4.40;;;;;;;22.27;66.45;94672.50;6129865;23;20164;-68
2023/07/21 01:53:45;;;;;;;4.95;4.45;;;;;;;22.20;66.47;94667.84;6139733;23;20187;-68
2023/07/21 01:56:49;;;;;;;5.63;4.28;;;;;;;22.16;66.76;94672.75;6129316;23;20176;-68
2023/07/21 01:59:54;;;;;;;5.22;4.28;;;;;;;22.13;66.71;94672.81;6130082;23;20227;-71
2023/07/21 02:02:57;;;;;;;5.43;4.93;;;;;;;22.13;66.38;94689.66;6130128;23;20174;-66
2023/07/21 02:06:01;;;;;;;4.78;4.38;;;;;;;22.16;66.52;94688.81;6128580;23;20167;-66
2023/07/21 02:09:06;;;;;;;5.20;4.70;;;;;;;22.16;66.51;94692.41;6129216;23;20189;-66
2023/07/21 02:12:11;;;;;;;6.03;4.63;;;;;;;22.22;66.15;94684.25;6139745;23;20179;-66
2023/07/21 02:15:15;;;;;;;6.88;5.57;;;;;;;22.28;66.13;94674.84;6128602;23;20187;-66
2023/07/21 02:18:19;;;;;;;7.20;6.60;;;;;;;22.25;66.33;94670.09;6129665;23;20160;-66
2023/07/21 02:21:23;;;;;;;7.22;6.55;;;;;;;22.24;66.17;94678.97;6128446;23;20572;-66
2023/07/21 02:24:28;;;;;;;6.90;6.20;;;;;;;22.30;66.29;94666.78;6128512;23;20182;-66
2023/07/21 02:27:32;;;;;;;8.70;6.07;;;;;;;22.34;65.92;94670.31;6128880;23;20226;-69
2023/07/21 02:30:35;;;;;;;7.22;6.50;;;;;;;22.31;65.84;94668.38;6129915;23;20186;-68
2023/07/21 02:33:40;;;;;;;6.20;5.65;;;;;;;22.31;65.64;94673.19;6128733;23;20171;-65
2023/07/21 02:36:44;;;;;;;6.22;5.47;;;;;;;22.24;65.74;94674.16;6128252;23;20218;-66
2023/07/21 02:39:48;;;;;;;6.07;5.57;;;;;;;22.18;65.92;94675.09;6128890;23;20175;-66
2023/07/21 02:42:16;;;;;;;6.72;5.95;;;;;;;22.12;66.38;94677.63;6128915;23;20175;-66
2023/07/21 02:44:43;;;;;;;6.72;6.05;;;;;;;22.11;66.83;94676.03;6128925;23;20187;-66
2023/07/21 02:47:10;;;;;;;6.30;5.70;;;;;;;22.16;66.68;94671.97;6128850;23;20172;-66
2023/07/21 02:49:37;;;;;;;7.13;5.47;;;;;;;22.18;66.20;94673.09;6129755;23;20164;-66
2023/07/21 02:52:05;;;;;;;6.78;5.55;;;;;;;22.20;66.35;94678.28;6128321;23;20179;-66
2023/07/21 02:54:32;;;;;;;6.30;5.70;;;;;;;22.18;66.04;94675.09;6129021;23;20196;-66
2023/07/21 02:57:00;;;;;;;5.05;4.65;;;;;;;22.19;65.42;94685.13;6129216;23;20202;-66
2023/07/21 02:59:28;;;;;;;7.50;5.32;;;;;;;22.18;65.87;94681.50;6129242;23;20163;-70
2023/07/21 03:01:56;;;;;;;6.22;5.63;;;;;;;22.20;66.50;94689.53;6130037;23;20235;-70
2023/07/21 03:04:23;;;;;;;6.00;5.40;;;;;;;22.18;66.46;94684.31;6139613;23;20204;-66
2023/07/21 03:06:50;;;;;;;6.03;5.43;;;;;;;22.16;67.06;94678.38;6128798;23;20168;-66
2023/07/21 03:09:17;;;;;;;6.10;5.57;;;;;;;22.14;67.21;94692.03;6129527;23;20198;-66
2023/07/21 03:11:44;;;;;;;5.90;5.13;;;;;;;22.13;67.35;94689.66;6128975;23;20186;-66
2023/07/21 03:14:11;;;;;;;6.13;5.53;;;;;;;22.11;67.43;94690.06;6128245;23;20187;-66
2023/07/21 03:19:23;;;;;;;6.85;5.65;;;;;;;22.02;67.24;94682.25;6138911;23;20164;-66
2023/07/21 03:21:50;;;;;;;6.97;5.85;;;;;;;21.99;67.69;94697.19;6128533;23;20527;-70
2023/07/21 03:24:17;;;;;;;7.10;5.60;;;;;;;21.99;67.54;94694.38;6128260;23;20183;-69
2023/07/21 03:26:44;;;;;;;7.07;6.10;;;;;;;22.00;67.65;94712.00;6128993;23;20167;-68
2023/07/21 03:29:11;;;;;;;6.28;5.65;;;;;;;22.03;67.48;94702.72;6128171;23;20172;-67
2023/07/21 03:31:41;;;;;;;8.60;5.80;;;;;;;22.04;67.32;94707.09;6128336;23;20180;-67
2023/07/21 03:34:08;;;;;;;5.97;5.40;;;;;;;22.05;67.35;94708.69;6137399;23;20597;-67
2023/07/21 03:36:35;;;;;;;9.85;5.90;;;;;;;22.03;67.13;94709.13;6129479;23;20200;-67
2023/07/21 03:39:02;;;;;;;6.38;5.80;;;;;;;22.02;67.44;94709.56;6139133;23;20215;-66
2023/07/21 03:41:29;;;;;;;6.15;5.53;;;;;;;22.00;67.37;94715.59;6127611;23;20175;-66
2023/07/21 03:43:56;;;;;;;6.90;5.80;;;;;;;22.00;67.79;94709.19;6127779;23;20179;-66
2023/07/21 03:46:23;;;;;;;6.55;5.95;;;;;;;22.00;67.48;94700.75;6138964;23;20183;-66
2023/07/21 03:48:51;;;;;;;7.38;5.43;;;;;;;22.01;67.57;94708.78;6127941;23;20263;-66
2023/07/21 03:51:18;;;;;;;7.57;5.78;;;;;;;22.00;67.85;94714.81;6138583;23;20174;-66
2023/07/21 03:53:45;;;;;;;7.75;5.65;;;;;;;21.98;67.54;94720.09;6129134;23;20174;-66
2023/07/21 03:56:12;;;;;;;7.22;5.85;;;;;;;21.88;68.03;94717.06;6127922;23;20239;-66
2023/07/21 03:58:40;;;;;;;6.28;5.40;;;;;;;21.82;68.52;94727.25;6128272;23;20179;-66
2023/07/21 04:01:09;;;;;;;7.40;5.68;;;;;;;21.84;68.63;94727.59;6128220;23;20254;-66
2023/07/21 04:03:36;;;;;;;10.50;5.82;;;;;;;21.83;68.85;94720.41;6127975;23;20171;-67
2023/07/21 04:06:07;;;;;;;6.15;5.10;;;;;;;21.83;68.62;94725.22;6128177;23;20203;-67
2023/07/21 04:08:35;;;;;;;10.60;6.18;;;;;;;21.84;68.67;94733.19;6129230;23;20168;-67
2023/07/21 04:11:02;;;;;;;9.00;6.82;;;;;;;21.84;68.95;94735.22;6128130;23;20179;-67
2023/07/21 04:13:29;;;;;;;11.77;7.13;;;;;;;21.81;68.78;94730.47;6127582;23;20179;-67
2023/07/21 04:15:56;;;;;;;9.35;8.07;;;;;;;21.79;69.18;94741.34;6128443;23;20180;-67
2023/07/21 04:19:01;;;;;;;8.73;7.63;;;;;;;21.81;68.35;94736.09;6129101;23;20164;-67
2023/07/21 04:22:05;;;;;;;7.32;6.38;;;;;;;21.82;68.28;94748.88;6138654;23;20175;-67
2023/07/21 04:25:11;;;;;;;8.18;6.43;;;;;;;21.80;68.28;94746.53;6127286;23;20453;-66
2023/07/21 04:28:14;;;;;;;6.60;6.00;;;;;;;21.73;68.10;94754.31;6127445;23;20552;-66
2023/07/21 04:31:22;;;;;;;7.00;5.82;;;;;;;21.65;67.94;94750.84;6127376;23;20172;-66
2023/07/21 04:34:26;;;;;;;6.68;5.78;;;;;;;21.68;68.29;94746.38;6127542;23;20171;-67
2023/07/21 04:37:32;;;;;;;6.60;5.78;;;;;;;21.77;68.12;94747.38;6128375;23;20206;-66
2023/07/21 04:40:36;;;;;;;7.20;6.45;;;;;;;21.84;67.69;94749.25;6128665;23;20170;-66
2023/07/21 04:43:40;;;;;;;7.43;6.60;;;;;;;21.88;68.22;94750.75;6128094;23;20175;-66
2023/07/21 04:46:46;;;;;;;8.75;6.43;;;;;;;21.88;68.10;94749.97;6128536;23;20180;-67
2023/07/21 04:49:50;;;;;;;7.35;6.57;;;;;;;21.87;67.70;94749.19;6127340;23;20195;-66
2023/07/21 04:52:55;;;;;;;6.45;5.82;;;;;;;21.86;68.02;94744.81;6127999;23;20171;-67
2023/07/21 04:55:59;;;;;;;8.35;6.40;;;;;;;21.90;68.12;94746.75;6127378;23;20290;-67
2023/07/21 04:59:04;;;;;;;10.02;6.30;;;;;;;21.91;67.82;94756.75;6128536;23;20183;-67
2023/07/21 05:02:08;;;;;;;8.50;6.88;;;;;;;21.92;67.72;94752.69;6129527;23;20175;-66
2023/07/21 05:05:13;;;;;;;11.20;7.72;;;;;;;21.92;67.77;94753.47;6130660;23;20602;-66
2023/07/21 05:08:16;;;;;;;8.20;7.07;;;;;;;21.95;67.51;94752.63;6130409;23;20557;-67
2023/07/21 05:11:21;;;;;;;11.77;7.55;;;;;;;21.98;67.61;94759.38;6129682;23;20172;-66
2023/07/21 05:14:25;;;;;;;8.45;7.00;;;;;;;22.01;67.28;94761.34;6129667;23;20456;-67
2023/07/21 05:17:30;;;;;;;7.85;6.93;;;;;;;22.00;67.12;94762.53;6129626;23;20175;-67
2023/07/21 05:20:07;;;;;;;7.63;6.35;;;;;;;22.00;66.63;94760.53;6130216;23;20230;-66
2023/07/21 05:22:34;;;;;;;8.13;6.43;;;;;;;22.05;66.70;94762.84;6140382;23;20159;-67
2023/07/21 05:25:01;;;;;;;8.00;6.43;;;;;;;22.13;67.06;94763.47;6129202;23;20178;-67
2023/07/21 05:27:28;;;;;;;6.95;6.28;;;;;;;22.19;67.12;94770.19;6129421;23;20204;-67
2023/07/21 05:29:55;;;;;;;7.72;6.35;;;;;;;22.25;66.77;94765.63;6130732;23;20166;-68
2023/07/21 05:32:22;;;;;;;7.65;6.03;;;;;;;22.32;66.64;94756.22;6129774;23;20164;-67
2023/07/21 05:34:49;;;;;;;7.85;5.80;;;;;;;22.40;66.93;94766.06;6130679;23;20187;-67
2023/07/21 05:37:18;;;;;;;10.07;6.35;;;;;;;22.44;66.51;94761.19;6128668;23;20204;-68
2023/07/21 05:39:45;;;;;;;7.78;6.90;;;;;;;22.47;66.33;94765.13;6129978;23;20227;-68
2023/07/21 05:42:13;;;;;;;11.85;9.07;;;;;;;22.48;66.18;94770.31;6140307;23;20171;-67
2023/07/21 05:44:40;;;;;;;8.63;7.03;;;;;;;22.49;66.15;94766.28;6139870;23;20175;-68
2023/07/21 05:47:08;;;;;;;8.20;7.28;;;;;;;22.51;66.40;94775.06;6128850;23;20175;-67
2023/07/21 05:49:35;;;;;;;8.60;6.15;;;;;;;22.57;66.34;94778.91;6140033;23;20200;-67
2023/07/21 05:52:02;;;;;;;5.45;5.05;;;;;;;22.64;66.13;94768.75;6128901;23;20180;-67
2023/07/21 05:54:30;;;;;;;6.32;5.50;;;;;;;22.70;65.93;94778.25;6128717;23;20172;-67
2023/07/21 05:56:58;;;;;;;6.03;5.43;;;;;;;22.75;65.42;94766.47;6129347;23;20253;-67
2023/07/21 05:59:25;;;;;;;6.72;5.78;;;;;;;22.78;65.82;94772.00;6139973;23;20152;-72
2023/07/21 06:01:53;;;;;;;6.05;5.45;;;;;;;22.82;65.99;94769.09;6129038;23;20171;-68
2023/07/21 06:04:20;;;;;;;6.82;5.65;;;;;;;22.82;65.95;94767.06;6130256;23;20184;-68
2023/07/21 06:06:46;;;;;;;6.45;5.55;;;;;;;22.85;66.29;94770.25;6130283;23;20172;-68
2023/07/21 06:09:14;;;;;;;6.03;5.38;;;;;;;22.86;66.24;94771.81;6128521;23;20195;-68
2023/07/21 06:11:42;;;;;;;6.15;5.00;;;;;;;22.95;65.88;94766.38;6128984;23;20171;-68
2023/07/21 06:14:10;;;;;;;6.50;5.10;;;;;;;23.04;66.18;94769.38;6129137;23;20179;-68
2023/07/21 06:16:37;;;;;;;6.40;5.10;;;;;;;23.11;66.40;94760.75;6129336;23;20195;-68
2023/07/21 06:19:03;;;;;;;7.10;6.40;;;;;;;23.12;66.22;94756.69;6129011;23;20194;-68
2023/07/21 06:21:30;;;;;;;7.70;6.70;;;;;;;23.13;66.09;94763.91;6128973;23;20176;-68
2023/07/21 06:23:57;;;;;;;7.25;6.55;;;;;;;23.13;66.22;94752.66;6128787;23;20175;-68
2023/07/21 06:26:24;;;;;;;7.05;6.35;;;;;;;23.19;65.91;94752.91;6128875;23;20186;-68
2023/07/21 06:28:52;;;;;;;7.15;5.70;;;;;;;23.29;65.48;94749.81;6139723;23;20175;-68
2023/07/21 06:31:19;;;;;;;6.38;5.70;;;;;;;23.40;65.65;94751.53;6128620;23;20576;-68
2023/07/21 06:33:46;;;;;;;6.07;5.55;;;;;;;23.63;64.49;94745.66;6129825;23;20179;-68
2023/07/21 06:36:13;;;;;;;5.78;5.22;;;;;;;23.71;64.22;94746.25;6127907;23;20210;-68
2023/07/21 06:38:40;;;;;;;7.47;6.10;;;;;;;23.74;63.73;94754.59;6129114;23;20168;-68
2023/07/21 06:41:07;;;;;;;8.43;6.85;;;;;;;23.66;63.28;94741.94;6128668;23;20231;-68
2023/07/21 06:43:35;;;;;;;7.53;5.60;;;;;;;23.67;63.48;94742.75;6128258;23;20174;-67
2023/07/21 06:46:03;;;;;;;6.95;6.30;;;;;;;23.79;63.09;94742.03;6129339;23;20172;-68
2023/07/21 06:48:31;;;;;;;7.43;6.50;;;;;;;23.87;62.72;94751.84;6129769;23;20184;-68
2023/07/21 06:50:57;;;;;;;8.43;6.40;;;;;;;23.89;62.82;94749.34;6128397;23;20483;-68
2023/07/21 06:53:24;;;;;;;7.22;6.10;;;;;;;23.93;62.75;94754.88;6128458;23;20176;-68
2023/07/21 06:55:51;;;;;;;6.57;5.72;;;;;;;24.05;62.51;94751.31;6129602;23;20184;-68
2023/07/21 06:58:18;;;;;;;8.40;6.88;;;;;;;24.08;62.38;94755.25;6129093;23;20227;-68
2023/07/21 07:00:46;;;;;;;8.73;7.10;;;;;;;23.99;62.31;94747.47;6129291;23;20160;-68
2023/07/21 07:03:14;;;;;;;7.25;6.55;;;;;;;23.94;62.38;94756.47;6128435;23;20632;-68
2023/07/21 07:05:45;;;;;;;6.68;6.07;;;;;;;23.97;62.53;94749.94;6129476;23;20164;-68
2023/07/21 07:08:12;;;;;;;7.60;6.78;;;;;;;23.98;62.31;94752.31;6129630;23;20160;-68
2023/07/21 07:10:39;;;;;;;7.75;6.28;;;;;;;24.06;62.29;94752.09;6128602;23;20176;-68
2023/07/21 07:13:05;;;;;;;7.25;6.35;;;;;;;24.18;61.78;94754.13;6139472;23;20184;-68
2023/07/21 07:15:32;;;;;;;6.80;6.10;;;;;;;24.31;61.70;94754.16;6138854;23;20635;-68
2023/07/21 07:17:59;;;;;;;6.68;6.07;;;;;;;24.30;61.21;94758.22;6128384;23;20172;-68
2023/07/21 07:20:28;;;;;;;7.10;6.40;;;;;;;24.25;61.02;94753.91;6127739;23;20267;-68
2023/07/21 07:22:55;;;;;;;6.50;6.00;;;;;;;24.20;60.96;94751.66;6138931;23;20223;-68
2023/07/21 07:25:24;;;;;;;6.57;5.82;;;;;;;24.22;60.87;94749.16;6128223;23;20182;-68
2023/07/21 07:27:52;;;;;;;7.68;6.30;;;;;;;24.26;60.66;94742.22;6129311;23;20191;-68
2023/07/21 07:30:20;;;;;;;7.00;6.30;;;;;;;24.30;61.08;94742.09;6127742;23;20621;-68
2023/07/21 07:32:46;;;;;;;6.57;5.85;;;;;;;24.45;60.41;94750.91;6138752;23;20187;-68
2023/07/21 07:35:13;;;;;;;6.63;5.68;;;;;;;24.46;60.27;94744.81;6127866;23;20202;-68
2023/07/21 07:37:43;;;;;;;6.90;6.20;;;;;;;24.51;59.72;94740.66;6126943;23;20179;-68
2023/07/21 07:40:11;;;;;;;9.48;6.00;;;;;;;24.56;59.89;94742.13;6127041;23;20168;-68
2023/07/21 07:42:37;;;;;;;5.88;5.28;;;;;;;24.71;59.56;94737.59;6126704;23;20179;-68
2023/07/21 07:45:05;;;;;;;6.78;5.68;;;;;;;24.79;59.38;94740.97;6137439;23;20171;-68
2023/07/21 07:47:31;;;;;;;6.25;5.50;;;;;;;24.91;58.86;94738.13;6126773;23;20167;-68
2023/07/21 07:49:59;;;;;;;8.13;5.40;;;;;;;25.01;58.13;94736.16;6126786;23;20517;-68
2023/07/21 07:52:25;;;;;;;7.20;5.40;;;;;;;25.07;58.26;94730.75;6128054;23;20230;-68
2023/07/21 07:54:54;;;;;;;7.85;5.35;;;;;;;25.15;57.72;94740.56;6137374;23;20190;-68
2023/07/21 07:57:20;;;;;;;8.20;5.43;;;;;;;25.12;57.78;94738.66;6126861;23;20179;-68
2023/07/21 07:59:47;;;;;;;5.97;5.47;;;;;;;25.13;57.30;94726.94;6126438;23;20175;-68
2023/07/21 08:02:14;;;;;;;8.13;5.55;;;;;;;25.17;56.22;94741.69;6127060;23;20239;-68
2023/07/21 08:04:41;;;;;;;6.65;5.45;;;;;;;25.23;56.62;94736.25;6127636;23;20588;-68
2023/07/21 08:07:07;;;;;;;5.85;5.18;;;;;;;25.26;55.14;94732.53;6126886;23;20230;-68
2023/07/21 08:09:34;;;;;;;8.63;5.40;;;;;;;25.23;55.65;94732.66;6127859;23;20170;-68
2023/07/21 08:12:03;;;;;;;6.78;5.55;;;;;;;25.24;56.28;94726.56;6137715;23;20178;-68
2023/07/21 08:14:29;;;;;;;5.63;5.03;;;;;;;25.34;56.31;94735.88;6127854;23;20160;-68
2023/07/21 08:16:56;;;;;;;6.28;5.18;;;;;;;25.48;55.89;94732.53;6126706;23;20187;-68
2023/07/21 08:19:23;;;;;;;7.65;5.45;;;;;;;25.61;55.17;94735.31;6127871;23;20231;-67
2023/07/21 08:21:51;;;;;;;11.63;5.85;;;;;;;25.71;54.65;94736.97;6126585;23;20180;-68
2023/07/21 08:24:18;;;;;;;13.38;5.60;;;;;;;25.82;54.09;94730.97;6127837;23;20180;-68
2023/07/21 08:26:45;;;;;;;6.57;5.57;;;;;;;25.92;52.03;94732.56;6126829;23;20175;-68
2023/07/21 08:29:13;;;;;;;6.18;5.10;;;;;;;25.89;53.07;94730.66;6126562;23;20238;-68
2023/07/21 08:31:40;;;;;;;6.13;5.50;;;;;;;25.93;53.99;94723.66;6127557;23;20171;-67
2023/07/21 08:34:06;;;;;;;6.50;5.10;;;;;;;26.05;53.48;94738.94;6127795;23;20250;-68
2023/07/21 08:36:33;;;;;;;7.10;5.15;;;;;;;26.13;53.08;94720.47;6067057;23;1439965;-68
2023/07/21 08:39:00;;;;;;;6.43;5.50;;;;;;;26.21;52.25;94732.28;6138291;23;20592;-68
2023/07/21 08:41:27;;;;;;;6.63;5.95;;;;;;;26.32;52.35;94720.53;6127705;23;20171;-68
2023/07/21 08:43:55;;;;;;;6.47;5.82;;;;;;;26.37;52.17;94719.97;6129306;23;20164;-67
2023/07/21 08:46:24;;;;;;;5.95;5.35;;;;;;;26.40;51.34;94722.66;6138686;23;20176;-68
2023/07/21 08:48:51;;;;;;;7.05;6.10;;;;;;;26.47;51.19;94729.28;6127715;23;20178;-68
2023/07/21 08:51:18;;;;;;;7.05;5.50;;;;;;;26.50;51.37;94726.31;6127743;23;20207;-68
2023/07/21 08:53:44;;;;;;;7.82;5.80;;;;;;;26.59;51.57;94728.41;6128129;23;20176;-68
2023/07/21 08:56:11;;;;;;;7.38;5.65;;;;;;;26.64;51.93;94725.72;6138325;23;20183;-68
2023/07/21 08:58:38;;;;;;;6.38;5.70;;;;;;;26.69;51.56;94729.19;6128737;23;20172;-68
2023/07/21 09:01:07;;;;;;;6.53;5.60;;;;;;;26.74;51.18;94728.59;6138604;23;20180;-68
2023/07/21 09:03:35;;;;;;;6.68;5.97;;;;;;;26.82;51.13;94727.03;6138476;23;20164;-71
2023/07/21 09:06:01;;;;;;;7.30;5.88;;;;;;;26.86;50.78;94719.19;6128091;23;20172;-70
2023/07/21 09:08:29;;;;;;;9.45;6.15;;;;;;;26.92;50.76;94725.03;6127932;23;20481;-70
2023/07/21 09:11:00;;;;;;;7.45;5.22;;;;;;;26.97;50.17;94722.34;6127847;23;20191;-70
2023/07/21 09:13:27;;;;;;;9.07;5.40;;;;;;;27.03;50.20;94717.66;6128493;23;20521;-70
2023/07/21 09:15:56;;;;;;;6.80;6.13;;;;;;;27.16;50.29;94711.88;6128618;23;20195;-71
2023/07/21 09:18:27;;;;;;;8.98;6.28;;;;;;;27.34;50.23;94713.94;6128294;23;20483;-71
2023/07/21 09:20:55;;;;;;;9.93;6.97;;;;;;;27.50;49.43;94715.69;6127803;23;20624;-71
2023/07/21 09:23:59;;;;;;;6.68;6.10;;;;;;;27.54;49.57;94705.00;6128493;23;20156;-71
2023/07/21 09:27:04;;;;;;;11.63;6.13;;;;;;;27.57;49.27;94704.81;6127460;23;20171;-71
2023/07/21 09:30:07;;;;;;;9.30;5.93;;;;;;;27.73;48.63;94698.03;6128574;23;20170;-71
2023/07/21 09:33:11;;;;;;;6.53;5.82;;;;;;;27.85;48.31;94693.47;6138409;23;20156;-70
2023/07/21 09:36:15;;;;;;;8.38;5.25;;;;;;;27.90;47.74;94701.34;6128154;23;20655;-71
2023/07/21 09:39:19;;;;;;;6.85;5.72;;;;;;;28.00;47.79;94697.25;6128656;23;20167;-71
2023/07/21 09:42:24;;;;;;;8.38;5.57;;;;;;;28.19;47.06;94695.13;6127607;23;20175;-71
2023/07/21 09:45:28;;;;;;;7.18;6.15;;;;;;;28.38;47.92;94693.03;6127899;23;20167;-70
2023/07/21 09:48:32;;;;;;;8.73;5.90;;;;;;;28.49;46.38;94698.19;6130315;23;20159;-70
2023/07/21 09:51:35;;;;;;;7.47;5.53;;;;;;;28.52;47.10;94692.34;6130503;23;20170;-70
2023/07/21 09:54:41;;;;;;;7.75;6.20;;;;;;;28.70;45.77;94687.88;6130288;23;20168;-70
2023/07/21 09:57:45;;;;;;;9.02;6.07;;;;;;;28.72;46.71;94686.13;6130235;23;20183;-71
2023/07/21 10:00:49;;;;;;;6.72;5.65;;;;;;;28.73;47.33;94684.84;6129873;23;20463;-70
2023/07/21 10:03:53;;;;;;;7.85;5.95;;;;;;;28.92;46.12;94682.69;6129173;23;20175;-71
2023/07/21 10:06:58;;;;;;;9.00;5.97;;;;;;;29.05;45.07;94684.53;6130132;23;20230;-70
2023/07/21 10:10:05;;;;;;;7.57;5.57;;;;;;;29.21;45.89;94675.59;6130050;23;20239;-70
2023/07/21 10:13:08;;;;;;;7.40;5.70;;;;;;;29.20;46.41;94669.13;6130110;23;20160;-69
2023/07/21 10:16:12;;;;;;;7.55;5.78;;;;;;;29.18;44.11;94673.72;6130068;23;20163;-71
2023/07/21 10:19:17;;;;;;;10.43;5.90;;;;;;;29.32;44.11;94677.88;6130184;23;20168;-71
2023/07/21 10:22:21;;;;;;;9.32;6.35;;;;;;;29.47;42.67;94670.94;6130062;23;20167;-68
2023/07/21 10:25:04;;;;;;;10.77;6.45;;;;;;;29.61;43.54;94665.81;6130029;23;20183;-67
2023/07/21 10:27:31;;;;;;;8.82;6.10;;;;;;;29.59;43.91;94671.19;6129985;23;20221;-67
2023/07/21 10:30:21;;;;;;;8.93;5.60;;;;;;;29.61;43.30;94665.81;6130140;23;20182;-66
2023/07/21 10:32:48;;;;;;;7.05;6.45;;;;;;;29.56;42.83;94664.41;6128837;23;20168;-66
2023/07/21 10:35:32;;;;;;;11.50;6.22;;;;;;;29.71;43.28;94673.00;6128632;23;20574;-66
2023/07/21 10:38:19;;;;;;;8.13;6.50;;;;;;;29.69;41.65;94667.00;6128043;23;20204;-66
2023/07/21 10:40:48;;;;;;;8.18;6.72;;;;;;;29.71;42.24;94667.31;6128934;23;20226;-66
2023/07/21 10:43:15;;;;;;;10.45;6.80;;;;;;;29.62;41.23;94662.47;6128849;23;20242;-66
2023/07/21 10:45:42;;;;;;;9.85;6.07;;;;;;;29.69;41.85;94662.09;6139254;23;20167;-66
2023/07/21 10:48:11;;;;;;;9.48;6.80;;;;;;;29.75;41.56;94659.38;6128957;23;20219;-66
2023/07/21 10:50:40;;;;;;;7.05;6.13;;;;;;;29.80;42.35;94657.91;6128316;23;20168;-66
2023/07/21 10:53:06;;;;;;;8.25;6.00;;;;;;;30.01;42.23;94662.41;6139344;23;20156;-66
2023/07/21 10:55:33;;;;;;;9.80;6.25;;;;;;;30.04;42.56;94663.50;6128840;23;20554;-66
2023/07/21 10:58:01;;;;;;;8.55;6.65;;;;;;;30.16;40.45;94654.66;6129739;23;20195;-66
2023/07/21 11:00:28;;;;;;;8.25;5.95;;;;;;;30.28;40.98;94655.63;6128658;23;20184;-66
2023/07/21 11:02:57;;;;;;;11.15;6.60;;;;;;;30.41;40.35;94638.28;6129648;23;20207;-66
2023/07/21 11:05:26;;;;;;;9.32;6.18;;;;;;;30.33;40.41;94639.97;6129509;23;20160;-66
2023/07/21 11:07:52;;;;;;;6.18;5.40;;;;;;;30.27;40.79;94639.06;6128605;23;20235;-66
2023/07/21 11:10:19;;;;;;;6.40;5.65;;;;;;;30.08;41.06;94638.50;6128620;23;20179;-66
2023/07/21 11:12:50;;;;;;;6.93;6.10;;;;;;;29.86;42.24;94633.97;6129618;23;20218;-66
2023/07/21 11:15:19;;;;;;;10.80;6.72;;;;;;;29.79;44.08;94637.22;6128527;23;20171;-66
2023/07/21 11:17:46;;;;;;;10.02;6.63;;;;;;;29.92;44.50;94636.91;6129469;23;20195;-66
2023/07/21 11:20:14;;;;;;;10.07;6.30;;;;;;;30.01;42.55;94641.72;6138946;23;20179;-66
2023/07/21 11:22:41;;;;;;;10.05;6.07;;;;;;;30.25;41.95;94635.94;6128101;23;20580;-66
2023/07/21 11:25:09;;;;;;;8.85;5.70;;;;;;;30.31;41.39;94636.81;6128781;23;20187;-66
2023/07/21 11:27:36;;;;;;;8.18;6.00;;;;;;;30.31;41.54;94637.59;6139076;23;20163;-66
2023/07/21 11:30:03;;;;;;;7.53;6.32;;;;;;;30.19;42.57;94627.31;6139417;23;20484;-66
2023/07/21 11:32:32;;;;;;;9.75;5.82;;;;;;;30.34;42.96;94624.44;6138792;23;20176;-66
2023/07/21 11:34:59;;;;;;;8.10;5.53;;;;;;;30.59;39.71;94623.03;6128240;23;20183;-66
2023/07/21 11:37:29;;;;;;;7.53;5.07;;;;;;;30.90;36.41;94628.13;6128148;23;20191;-66
2023/07/21 11:39:56;;;;;;;9.27;5.30;;;;;;;31.04;37.27;94627.28;6129206;23;20481;-66
2023/07/21 11:42:24;;;;;;;7.18;5.03;;;;;;;31.01;36.00;94619.75;6128660;23;20500;-66
2023/07/21 11:44:52;;;;;;;6.28;4.78;;;;;;;31.18;35.08;94628.50;6139081;23;20288;-66
2023/07/21 11:47:19;;;;;;;8.52;4.43;;;;;;;31.30;33.52;94618.00;6129294;23;20156;-66
2023/07/21 11:49:49;;;;;;;7.05;4.75;;;;;;;31.36;33.51;94616.03;6129534;23;20164;-66
2023/07/21 11:52:24;;;;;;;8.82;4.75;;;;;;;31.44;34.49;94616.38;6138900;23;20187;-66
2023/07/21 11:54:50;;;;;;;8.65;4.88;;;;;;;31.54;32.48;94615.72;6129022;23;20163;-66
2023/07/21 11:57:20;;;;;;;8.02;4.97;;;;;;;31.64;32.06;94610.66;6129030;23;20192;-66
2023/07/21 11:59:46;;;;;;;6.13;4.82;;;;;;;31.64;33.29;94599.25;6129208;23;20159;-66
2023/07/21 12:02:16;;;;;;;6.88;4.53;;;;;;;31.60;33.97;94602.31;6128784;23;20560;-66
2023/07/21 12:04:43;;;;;;;9.57;5.72;;;;;;;31.84;31.90;94607.72;6128221;23;20242;-66
2023/07/21 12:07:12;;;;;;;7.60;4.70;;;;;;;31.98;33.52;94606.06;6129182;23;20156;-66
2023/07/21 12:09:39;;;;;;;8.43;4.90;;;;;;;32.08;32.10;94607.47;6128993;23;20337;-66
2023/07/21 12:12:07;;;;;;;5.97;4.85;;;;;;;32.15;33.63;94614.78;6128086;23;20187;-66
2023/07/21 12:14:34;;;;;;;7.47;5.10;;;;;;;32.17;32.02;94614.25;6129209;23;20168;-66